createdAt,value
2023-04-11T00:01:07.240Z,99.90
2023-04-11T00:04:11.129Z,99.90
2023-04-11T00:07:12.945Z,99.90
2023-04-11T00:10:14.643Z,99.90
2023-04-11T00:13:19.650Z,99.90
2023-04-11T00:16:21.400Z,99.90
2023-04-11T00:19:23.400Z,99.90
2023-04-11T00:25:55.639Z,99.90
2023-04-11T00:28:57.334Z,99.90
2023-04-11T00:31:59.028Z,99.90
2023-04-11T00:35:00.705Z,99.90
2023-04-11T00:38:03.834Z,99.90
2023-04-11T00:41:06.273Z,99.90
2023-04-11T00:44:08.481Z,99.90
2023-04-11T00:47:10.320Z,99.90
2023-04-11T00:50:13.901Z,99.90
2023-04-11T00:53:17.428Z,99.90
2023-04-11T00:56:19.182Z,99.90
2023-04-11T00:59:20.883Z,99.90
2023-04-11T01:02:24.824Z,99.90
2023-04-11T01:05:30.229Z,99.90
2023-04-11T01:08:31.910Z,99.90
2023-04-11T01:11:34.164Z,99.90
2023-04-11T01:14:35.830Z,99.90
2023-04-11T01:17:37.740Z,99.90
2023-04-11T01:20:39.600Z,99.90
2023-04-11T01:23:41.555Z,99.90
2023-04-11T01:26:44.516Z,99.90
2023-04-11T01:29:46.604Z,99.90
2023-04-11T01:32:50.361Z,99.90
2023-04-11T01:35:52.451Z,99.90
2023-04-11T01:38:56.207Z,99.90
2023-04-11T01:42:00.872Z,99.90
2023-04-11T01:45:04.207Z,99.90
2023-04-11T01:48:09.104Z,99.90
2023-04-11T01:51:11.201Z,99.90
2023-04-11T01:54:12.884Z,99.90
2023-04-11T01:57:14.597Z,99.90
2023-04-11T02:00:16.741Z,99.90
2023-04-11T02:03:20.851Z,99.90
2023-04-11T02:06:23.197Z,99.90
2023-04-11T02:09:26.126Z,99.90
2023-04-11T02:12:30.246Z,99.90
2023-04-11T02:15:32.018Z,99.90
2023-04-11T02:18:33.744Z,99.90
2023-04-11T02:21:39.540Z,99.90
2023-04-11T02:24:47.627Z,99.90
2023-04-11T02:27:49.577Z,99.90
2023-04-11T02:30:51.821Z,99.90
2023-04-11T02:33:53.934Z,99.90
2023-04-11T02:37:02.781Z,99.90
2023-04-11T02:40:08.760Z,99.90
2023-04-11T02:43:13.863Z,99.90
2023-04-11T02:46:16.909Z,99.90
2023-04-11T02:49:20.075Z,99.90
2023-04-11T02:52:23.114Z,99.90
2023-04-11T02:55:25.282Z,99.90
2023-04-11T02:58:29.144Z,99.90
2023-04-11T03:01:37.604Z,99.90
2023-04-11T03:04:40.350Z,99.90
2023-04-11T03:07:48.288Z,99.90
2023-04-11T03:10:50.423Z,99.90
2023-04-11T03:13:52.778Z,99.90
2023-04-11T03:16:54.653Z,99.90
2023-04-11T03:19:56.576Z,99.90
2023-04-11T03:23:01.948Z,99.90
2023-04-11T03:26:07.813Z,99.90
2023-04-11T03:29:09.877Z,99.90
2023-04-11T03:32:23.201Z,99.90
2023-04-11T03:35:25.088Z,99.90
2023-04-11T03:38:26.910Z,99.90
2023-04-11T03:41:28.969Z,99.90
2023-04-11T03:44:32.006Z,99.90
2023-04-11T03:47:34.200Z,99.90
2023-04-11T03:50:36.997Z,99.90
2023-04-11T03:53:39.224Z,99.90
2023-04-11T03:57:17.732Z,99.90
2023-04-11T04:00:20.802Z,99.90
2023-04-11T04:03:35.282Z,99.90
2023-04-11T04:06:38.796Z,99.90
2023-04-11T04:09:41.933Z,99.90
2023-04-11T04:12:44.763Z,99.90
2023-04-11T04:15:51.698Z,99.90
2023-04-11T04:18:58.400Z,99.90
2023-04-11T04:22:01.554Z,99.90
2023-04-11T04:25:12.695Z,99.90
2023-04-11T04:28:20.284Z,99.90
2023-04-11T04:31:27.889Z,99.90
2023-04-11T04:34:47.172Z,99.90
2023-04-11T04:37:55.267Z,99.90
2023-04-11T04:41:17.580Z,99.90
2023-04-11T04:44:34.378Z,99.90
2023-04-11T04:47:42.294Z,99.90
2023-04-11T04:50:45.893Z,99.90
2023-04-11T04:53:48.704Z,99.90
2023-04-11T05:07:18.878Z,99.90
2023-04-11T05:10:25.844Z,99.90
2023-04-11T05:13:27.887Z,99.90
2023-04-11T05:16:29.796Z,99.90
2023-04-11T05:19:33.076Z,99.90
2023-04-11T05:22:37.495Z,99.90
2023-04-11T05:25:39.668Z,99.90
2023-04-11T05:28:45.652Z,99.90
2023-04-11T05:31:51.910Z,99.90
2023-04-11T05:34:59.102Z,99.90
2023-04-11T05:38:23.859Z,99.90
2023-04-11T05:41:26.603Z,99.90
2023-04-11T05:44:28.366Z,99.90
2023-04-11T05:47:31.275Z,99.90
2023-04-11T05:50:34.004Z,99.90
2023-04-11T05:53:35.957Z,99.90
2023-04-11T05:56:39.848Z,99.90
2023-04-11T05:59:42.930Z,99.90
2023-04-11T06:02:45.161Z,99.90
2023-04-11T06:05:47.234Z,99.90
2023-04-11T06:08:49.499Z,99.90
2023-04-11T06:11:53.305Z,99.90
2023-04-11T06:14:55.325Z,99.90
2023-04-11T06:17:57.659Z,99.90
2023-04-11T06:20:59.546Z,99.90
2023-04-11T06:24:11.310Z,99.90
2023-04-11T06:27:14.869Z,99.90
2023-04-11T06:30:17.086Z,99.90
2023-04-11T06:33:19.169Z,99.90
2023-04-11T06:36:24.170Z,99.90
2023-04-11T06:39:26.506Z,99.90
2023-04-11T06:42:28.583Z,99.90
2023-04-11T06:45:31.073Z,99.90
2023-04-11T06:48:33.072Z,99.90
2023-04-11T06:51:35.934Z,99.90
2023-04-11T06:54:37.936Z,99.90
2023-04-11T06:57:42.156Z,99.90
2023-04-11T07:00:44.066Z,99.90
2023-04-11T07:03:50.432Z,99.90
2023-04-11T07:06:55.380Z,99.90
2023-04-11T07:09:58.061Z,99.90
2023-04-11T07:13:00.170Z,99.90
2023-04-11T07:16:02.097Z,99.90
2023-04-11T07:19:03.997Z,99.90
2023-04-11T07:22:05.828Z,99.90
2023-04-11T07:25:07.991Z,99.90
2023-04-11T07:28:10.418Z,99.90
2023-04-11T07:31:14.024Z,99.90
2023-04-11T07:34:16.216Z,99.90
2023-04-11T07:37:18.302Z,99.90
2023-04-11T07:40:20.543Z,99.90
2023-04-11T07:43:23.511Z,99.90
2023-04-11T07:46:25.699Z,99.90
2023-04-11T07:56:36.237Z,99.90
2023-04-11T07:59:38.252Z,99.90
2023-04-11T08:02:47.739Z,99.90
2023-04-11T08:05:50.604Z,99.90
2023-04-11T08:08:52.546Z,99.90
2023-04-11T08:11:55.144Z,99.90
2023-04-11T08:14:57.066Z,99.90
2023-04-11T08:17:59.899Z,99.90
2023-04-11T08:21:02.579Z,99.90
2023-04-11T08:24:06.137Z,99.90
2023-04-11T08:27:08.195Z,99.90
2023-04-11T08:30:10.496Z,99.90
2023-04-11T08:33:12.930Z,99.90
2023-04-11T08:36:14.956Z,99.90
2023-04-11T08:39:16.874Z,99.90
2023-04-11T08:42:32.118Z,99.90
2023-04-11T08:45:33.962Z,99.90
2023-04-11T08:48:36.251Z,99.90
2023-04-11T08:51:43.561Z,99.90
2023-04-11T08:54:51.383Z,99.90
2023-04-11T08:57:53.915Z,99.90
2023-04-11T09:00:55.887Z,99.90
2023-04-11T09:04:02.388Z,99.90
2023-04-11T09:07:11.627Z,99.90
2023-04-11T09:10:21.423Z,99.90
2023-04-11T09:13:29.438Z,99.90
2023-04-11T09:16:33.635Z,99.90
2023-04-11T09:19:35.840Z,99.90
2023-04-11T09:22:37.983Z,99.90
2023-04-11T09:25:44.730Z,99.90
2023-04-11T09:28:54.762Z,99.90
2023-04-11T09:31:58.354Z,99.90
2023-04-11T09:35:20.902Z,99.90
2023-04-11T09:38:34.069Z,99.90
2023-04-11T09:41:41.962Z,99.90
2023-04-11T09:44:43.860Z,99.90
2023-04-11T09:47:47.238Z,99.90
2023-04-11T09:50:51.070Z,99.90
2023-04-11T09:53:54.719Z,99.90
2023-04-11T09:56:57.151Z,99.90
2023-04-11T09:59:59.197Z,99.90
2023-04-11T10:03:01.448Z,99.90
2023-04-11T10:06:09.474Z,99.90
2023-04-11T10:09:15.510Z,99.90
2023-04-11T10:12:34.098Z,99.90
2023-04-11T10:15:35.993Z,99.90
2023-04-11T10:18:40.667Z,99.90
2023-04-11T10:21:53.265Z,99.90
2023-04-11T10:25:21.117Z,99.90
2023-04-11T10:28:41.567Z,99.90
2023-04-11T10:32:15.740Z,99.90
2023-04-11T10:35:17.665Z,99.90
2023-04-11T10:38:48.634Z,99.90
2023-04-11T10:41:50.991Z,99.90
2023-04-11T10:45:31.382Z,99.90
2023-04-11T10:48:57.848Z,99.90
2023-04-11T10:52:21.682Z,99.90
2023-04-11T10:55:24.895Z,99.90
2023-04-11T10:58:40.010Z,99.90
2023-04-11T11:01:48.979Z,99.90
2023-04-11T11:04:54.771Z,99.90
2023-04-11T11:07:56.704Z,99.90
2023-04-11T11:11:03.365Z,99.90
2023-04-11T11:14:05.482Z,96.20
2023-04-11T11:17:09.009Z,92.50
2023-04-11T11:20:20.370Z,89.00
2023-04-11T12:25:07.794Z,65.20
2023-04-11T13:14:48.107Z,49.00
2023-04-11T13:17:50.281Z,49.40
2023-04-11T13:20:52.088Z,49.10
2023-04-11T13:23:53.926Z,48.50
2023-04-11T13:31:06.090Z,44.00
2023-04-11T13:34:13.609Z,45.70
2023-04-11T13:37:18.036Z,46.90
2023-04-11T13:40:35.377Z,44.80
2023-04-11T13:43:38.806Z,43.30
2023-04-11T13:46:41.126Z,50.10
2023-04-11T13:49:51.261Z,47.10
2023-04-11T13:53:09.069Z,45.20
2023-04-11T13:56:11.596Z,44.80
2023-04-11T13:59:13.828Z,40.50
2023-04-11T14:02:18.253Z,43.00
2023-04-11T14:05:27.055Z,47.90
2023-04-11T14:08:35.110Z,43.20
2023-04-11T14:11:52.551Z,39.80
2023-04-11T14:15:02.745Z,42.70
2023-04-11T14:18:16.373Z,40.10
2023-04-11T14:21:25.649Z,42.70
2023-04-11T14:24:35.812Z,47.20
2023-04-11T14:27:39.755Z,44.80
2023-04-11T14:30:48.079Z,44.60
2023-04-11T14:33:55.886Z,38.40
2023-04-11T14:37:08.761Z,35.00
2023-04-11T14:40:15.178Z,32.60
2023-04-11T14:43:17.152Z,35.80
2023-04-11T14:46:31.543Z,36.30
2023-04-11T14:49:37.638Z,36.10
2023-04-11T14:52:48.158Z,40.40
2023-04-11T14:55:59.547Z,42.20
2023-04-11T15:02:56.280Z,32.40
2023-04-11T15:06:05.737Z,32.00
2023-04-11T15:09:11.164Z,30.40
2023-04-11T15:12:35.209Z,30.00
2023-04-11T15:15:40.683Z,33.20
2023-04-11T15:18:43.049Z,33.10
2023-04-11T15:21:51.516Z,31.10
2023-04-11T15:24:57.858Z,32.20
2023-04-11T15:28:02.772Z,31.30
2023-04-11T15:31:14.909Z,28.70
2023-04-11T15:34:27.907Z,31.50
2023-04-11T15:37:35.117Z,30.10
2023-04-11T15:40:46.445Z,32.40
2023-04-11T15:43:48.593Z,29.70
2023-04-11T15:46:50.612Z,33.30
2023-04-11T15:50:15.321Z,33.00
2023-04-11T15:53:36.071Z,31.90
2023-04-11T15:56:41.121Z,33.20
2023-04-11T15:59:43.061Z,36.70
2023-04-11T16:02:49.371Z,34.80
2023-04-11T16:05:57.840Z,37.50
2023-04-11T16:09:02.182Z,29.60
2023-04-11T16:12:06.469Z,30.00
2023-04-11T16:15:15.830Z,28.20
2023-04-11T16:18:23.268Z,26.80
2023-04-11T16:21:28.992Z,27.90
2023-04-11T16:24:34.841Z,29.90
2023-04-11T16:28:02.889Z,35.00
2023-04-11T16:31:11.088Z,34.30
2023-04-11T16:34:20.668Z,35.30
2023-04-11T16:37:27.130Z,35.60
2023-04-11T16:40:31.975Z,35.70
2023-04-11T16:43:34.133Z,41.90
2023-04-11T16:46:43.582Z,38.90
2023-04-11T16:49:47.106Z,39.40
2023-04-11T16:52:58.510Z,40.20
2023-04-11T16:56:00.680Z,41.70
2023-04-11T16:59:09.292Z,42.30
2023-04-11T17:02:20.143Z,45.00
2023-04-11T17:05:24.207Z,43.20
2023-04-11T17:08:29.533Z,43.50
2023-04-11T17:11:37.817Z,42.80
2023-04-11T17:14:42.813Z,44.60
2023-04-11T17:17:47.117Z,47.20
2023-04-11T17:20:49.264Z,46.70
2023-04-11T17:24:00.372Z,48.00
2023-04-11T17:27:06.063Z,50.20
2023-04-11T17:30:18.616Z,50.40
2023-04-11T17:33:29.272Z,50.00
2023-04-11T17:36:35.447Z,55.00
2023-04-11T17:39:46.715Z,55.20
2023-04-11T17:42:53.222Z,60.90
2023-04-11T17:46:02.834Z,61.40
2023-04-11T17:49:05.131Z,69.50
2023-04-11T17:52:26.626Z,60.00
2023-04-11T17:55:29.120Z,66.30
2023-04-11T17:58:34.691Z,70.10
2023-04-11T18:01:48.250Z,63.10
2023-04-11T18:04:56.835Z,69.00
2023-04-11T18:08:13.474Z,74.50
2023-04-11T18:11:21.721Z,74.20
2023-04-11T18:14:27.841Z,76.70
2023-04-11T18:17:30.534Z,80.50
2023-04-11T18:20:37.495Z,89.40
2023-04-11T18:23:43.854Z,87.90
2023-04-11T18:26:57.865Z,88.40
2023-04-11T18:30:03.371Z,89.00
2023-04-11T18:33:09.828Z,89.00
2023-04-11T18:36:22.242Z,89.50
2023-04-11T18:39:52.667Z,90.00
2023-04-11T18:43:06.763Z,91.90
2023-04-11T18:46:16.349Z,97.60
2023-04-11T18:49:19.007Z,98.20
2023-04-11T18:52:41.511Z,99.40
2023-04-11T18:55:53.149Z,99.90
2023-04-11T18:59:05.557Z,99.30
2023-04-11T19:02:10.776Z,99.90
2023-04-11T19:05:20.584Z,99.90
2023-04-11T19:08:35.002Z,99.90
2023-04-11T19:11:44.895Z,99.90
2023-04-11T19:15:01.656Z,99.90
2023-04-11T19:18:13.826Z,99.90
2023-04-11T19:21:31.143Z,99.90
2023-04-11T19:24:34.631Z,99.90
2023-04-11T19:27:42.873Z,99.90
2023-04-11T19:30:49.737Z,99.90
2023-04-11T19:34:01.483Z,99.90
2023-04-11T19:37:10.115Z,99.90
2023-04-11T19:40:16.858Z,99.90
2023-04-11T19:43:19.639Z,99.90
2023-04-11T19:46:21.430Z,99.90
2023-04-11T19:49:43.805Z,99.90
2023-04-11T19:53:04.045Z,99.90
2023-04-11T19:56:10.906Z,99.90
2023-04-11T19:59:21.757Z,99.90
2023-04-11T20:02:24.355Z,99.90
2023-04-11T20:05:32.268Z,99.90
2023-04-11T20:08:37.739Z,99.90
2023-04-11T20:11:53.281Z,99.90
2023-04-11T20:14:55.836Z,99.90
2023-04-11T20:18:01.205Z,99.90
2023-04-11T20:21:13.245Z,99.90
2023-04-11T20:24:31.802Z,99.90
2023-04-11T20:27:41.814Z,99.90
2023-04-11T20:31:27.738Z,99.90
2023-04-11T20:34:32.863Z,99.90
2023-04-11T20:37:52.140Z,99.90
2023-04-11T20:41:06.954Z,99.90
2023-04-11T20:44:29.455Z,99.90
2023-04-11T20:47:49.298Z,99.90
2023-04-11T20:51:11.552Z,99.90
2023-04-11T20:54:13.695Z,99.90
2023-04-11T20:57:22.045Z,99.90
2023-04-11T21:00:24.992Z,99.90
2023-04-11T21:03:33.510Z,99.90
2023-04-11T21:06:35.697Z,99.90
2023-04-11T21:09:38.562Z,99.90
2023-04-11T21:12:41.609Z,99.90
2023-04-11T21:15:43.447Z,99.90
2023-04-11T21:18:46.162Z,99.90
2023-04-11T21:21:48.217Z,99.90
2023-04-11T21:24:50.152Z,99.90
2023-04-11T21:27:51.933Z,99.90
2023-04-11T21:30:54.173Z,99.90
2023-04-11T21:33:56.305Z,99.90
2023-04-11T21:36:59.508Z,99.90
2023-04-11T21:40:02.343Z,99.90
2023-04-11T21:43:04.349Z,99.90
2023-04-11T21:46:06.942Z,99.90
2023-04-11T21:49:08.871Z,99.90
2023-04-11T21:52:10.807Z,99.90
2023-04-11T21:55:14.563Z,99.90
2023-04-11T21:58:28.602Z,99.90
2023-04-11T22:01:31.284Z,99.90
2023-04-11T22:04:39.243Z,99.90
2023-04-11T22:07:48.739Z,99.90
2023-04-11T22:10:52.329Z,99.90
2023-04-11T22:13:54.289Z,99.90
2023-04-11T22:16:58.322Z,99.90
2023-04-11T22:20:00.161Z,99.90
2023-04-11T22:23:01.881Z,99.90
2023-04-11T22:26:03.619Z,99.90
2023-04-11T22:29:05.410Z,99.90
2023-04-11T22:32:07.956Z,99.90
2023-04-11T22:35:10.304Z,99.90
2023-04-11T22:38:12.059Z,99.90
2023-04-11T22:41:17.420Z,99.90
2023-04-11T22:44:19.322Z,99.90
2023-04-11T22:47:21.752Z,99.90
2023-04-11T22:50:23.760Z,99.90
2023-04-11T22:53:26.163Z,99.90
2023-04-11T22:56:27.940Z,99.90
2023-04-11T22:59:29.718Z,99.90
2023-04-11T23:02:32.137Z,99.90
2023-04-11T23:05:34.227Z,99.90
2023-04-11T23:08:36.323Z,99.90
2023-04-11T23:11:38.085Z,99.90
2023-04-11T23:14:39.839Z,99.90
2023-04-11T23:17:41.703Z,99.90
2023-04-11T23:20:44.986Z,99.90
2023-04-11T23:23:46.802Z,99.90
2023-04-11T23:26:48.490Z,99.90
2023-04-11T23:29:52.528Z,99.90
2023-04-11T23:32:54.525Z,99.90
2023-04-11T23:35:56.761Z,99.90
2023-04-11T23:38:58.578Z,99.90
2023-04-11T23:42:00.891Z,99.90
2023-04-11T23:45:02.854Z,99.90
2023-04-11T23:48:04.891Z,99.90
2023-04-11T23:51:07.202Z,99.90
2023-04-11T23:54:08.981Z,99.90
2023-04-11T23:57:11.776Z,99.90
